createdAt,value
2019-02-14T00:02:11.910Z,103.00
2019-02-14T00:05:16.456Z,103.29
2019-02-14T00:08:19.119Z,103.35
2019-02-14T00:11:24.654Z,103.62
2019-02-14T00:14:27.233Z,103.19
2019-02-14T00:17:29.939Z,103.52
2019-02-14T00:20:32.610Z,104.16
2019-02-14T00:23:35.354Z,103.98
2019-02-14T00:26:38.028Z,104.01
2019-02-14T00:29:40.710Z,104.33
2019-02-14T00:32:43.339Z,103.52
2019-02-14T00:35:46.052Z,103.71
2019-02-14T00:38:48.873Z,102.87
2019-02-14T00:41:51.640Z,101.82
2019-02-14T00:44:54.423Z,102.07
2019-02-14T00:47:57.175Z,102.70
2019-02-14T00:50:59.810Z,103.20
2019-02-14T00:54:02.482Z,101.43
2019-02-14T00:57:07.073Z,101.81
2019-02-14T01:00:10.054Z,101.94
2019-02-14T01:03:12.735Z,101.18
2019-02-14T01:06:15.346Z,98.67
2019-02-14T01:09:18.178Z,98.46
2019-02-14T01:12:20.843Z,98.14
2019-02-14T01:15:24.948Z,97.46
2019-02-14T01:18:27.734Z,96.91
2019-02-14T01:21:30.328Z,96.83
2019-02-14T01:24:32.947Z,96.70
2019-02-14T01:27:36.632Z,96.52
2019-02-14T01:30:40.284Z,97.21
2019-02-14T01:33:42.878Z,97.37
2019-02-14T01:36:45.429Z,98.08
2019-02-14T01:39:48.059Z,97.92
2019-02-14T01:42:50.738Z,96.92
2019-02-14T01:45:53.347Z,96.54
2019-02-14T01:48:55.939Z,96.69
2019-02-14T01:51:58.683Z,97.29
2019-02-14T01:55:01.367Z,97.33
2019-02-14T01:58:04.955Z,98.02
2019-02-14T02:01:07.619Z,98.91
2019-02-14T02:04:10.243Z,98.36
2019-02-14T02:07:12.808Z,98.63
2019-02-14T02:10:15.448Z,98.53
2019-02-14T02:13:18.491Z,99.25
2019-02-14T02:16:21.167Z,99.18
2019-02-14T02:19:23.967Z,99.45
2019-02-14T02:22:27.614Z,99.74
2019-02-14T02:25:30.203Z,99.20
2019-02-14T02:28:33.475Z,99.13
2019-02-14T02:31:36.016Z,99.04
2019-02-14T02:34:38.713Z,98.59
2019-02-14T02:37:41.367Z,98.24
2019-02-14T02:40:43.988Z,98.74
2019-02-14T02:43:46.735Z,98.40
2019-02-14T02:46:49.299Z,97.96
2019-02-14T02:49:51.898Z,97.20
2019-02-14T02:52:54.468Z,97.04
2019-02-14T02:55:57.028Z,97.24
2019-02-14T02:58:59.696Z,97.86
2019-02-14T03:02:02.309Z,97.15
2019-02-14T03:05:05.438Z,95.52
2019-02-14T03:08:07.978Z,95.77
2019-02-14T03:11:10.759Z,95.87
2019-02-14T03:14:13.328Z,96.76
2019-02-14T03:17:16.232Z,97.42
2019-02-14T03:20:18.877Z,98.39
2019-02-14T03:23:21.602Z,98.01
2019-02-14T03:26:26.015Z,98.53
2019-02-14T03:29:28.692Z,99.82
2019-02-14T03:32:31.432Z,98.91
2019-02-14T03:35:34.065Z,98.55
2019-02-14T03:38:37.512Z,99.11
2019-02-14T03:41:40.652Z,98.89
2019-02-14T03:44:43.336Z,98.05
2019-02-14T03:47:46.022Z,97.04
2019-02-14T03:50:48.671Z,96.05
2019-02-14T03:53:51.280Z,96.50
2019-02-14T03:56:53.858Z,96.24
2019-02-14T03:59:56.557Z,97.02
2019-02-14T04:03:00.101Z,96.51
2019-02-14T04:06:02.814Z,97.36
2019-02-14T04:09:07.225Z,97.69
2019-02-14T04:12:09.912Z,98.74
2019-02-14T04:15:13.799Z,99.45
2019-02-14T04:18:16.429Z,99.48
2019-02-14T04:21:19.159Z,97.87
2019-02-14T04:24:21.792Z,94.95
2019-02-14T04:27:24.469Z,94.47
2019-02-14T04:30:27.108Z,94.61
2019-02-14T04:33:29.668Z,94.94
2019-02-14T04:36:36.106Z,96.09
2019-02-14T04:39:36.833Z,95.39
2019-02-14T04:42:39.464Z,95.74
2019-02-14T04:45:43.096Z,95.68
2019-02-14T04:48:45.892Z,96.15
2019-02-14T04:51:52.433Z,96.21
2019-02-14T04:54:55.096Z,96.78
2019-02-14T04:57:59.471Z,96.97
2019-02-14T05:01:02.078Z,96.53
2019-02-14T05:04:04.877Z,96.38
2019-02-14T05:07:07.526Z,96.25
2019-02-14T05:10:10.362Z,95.20
2019-02-14T05:13:13.021Z,94.89
2019-02-14T05:16:30.011Z,94.90
2019-02-14T05:19:32.608Z,93.83
2019-02-14T05:22:35.197Z,94.07
2019-02-14T05:25:37.862Z,95.47
2019-02-14T05:28:40.593Z,95.96
2019-02-14T05:31:43.293Z,96.16
2019-02-14T05:34:45.913Z,95.80
2019-02-14T05:37:48.592Z,95.33
2019-02-14T05:40:51.382Z,94.46
2019-02-14T05:43:54.031Z,95.04
2019-02-14T05:46:56.762Z,95.57
2019-02-14T05:49:59.327Z,95.31
2019-02-14T05:53:02.033Z,95.16
2019-02-14T05:56:04.673Z,94.99
2019-02-14T05:59:07.324Z,94.60
2019-02-14T06:05:40.363Z,95.98
2019-02-14T06:08:43.047Z,96.76
2019-02-14T06:11:49.677Z,96.47
2019-02-14T06:14:52.226Z,96.31
2019-02-14T06:17:54.928Z,95.16
2019-02-14T06:20:57.699Z,94.80
2019-02-14T06:24:00.482Z,93.01
2019-02-14T06:27:03.130Z,92.07
2019-02-14T06:30:07.629Z,91.11
2019-02-14T06:33:10.178Z,92.10
2019-02-14T06:36:13.787Z,92.52
2019-02-14T06:39:17.774Z,92.13
2019-02-14T06:42:20.543Z,92.69
2019-02-14T06:45:23.267Z,91.57
2019-02-14T06:48:25.826Z,91.44
2019-02-14T06:51:28.448Z,89.32
2019-02-14T06:54:31.051Z,90.71
2019-02-14T06:57:33.792Z,89.94
2019-02-14T07:00:37.347Z,89.91
2019-02-14T07:03:40.054Z,88.11
2019-02-14T07:06:42.712Z,87.73
2019-02-14T07:09:45.306Z,87.12
2019-02-14T07:12:47.930Z,87.43
2019-02-14T07:15:50.565Z,84.34
2019-02-14T07:18:53.297Z,83.15
2019-02-14T07:21:55.905Z,82.09
2019-02-14T07:24:58.660Z,83.44
2019-02-14T07:28:01.387Z,83.51
2019-02-14T07:31:03.916Z,79.96
2019-02-14T07:34:06.477Z,80.67
2019-02-14T07:37:11.311Z,80.42
2019-02-14T07:40:13.996Z,81.86
2019-02-14T07:43:16.593Z,81.45
2019-02-14T07:46:22.679Z,78.20
2019-02-14T07:49:23.668Z,79.13
2019-02-14T07:52:26.303Z,79.60
2019-02-14T07:55:28.900Z,80.16
2019-02-14T07:58:31.476Z,81.34
2019-02-14T08:01:34.309Z,81.77
2019-02-14T08:04:36.867Z,82.09
2019-02-14T08:07:39.465Z,81.96
2019-02-14T08:10:42.066Z,81.83
2019-02-14T08:13:45.615Z,81.12
2019-02-14T08:16:48.246Z,78.63
2019-02-14T08:19:50.846Z,77.16
2019-02-14T08:22:53.685Z,76.84
2019-02-14T08:25:56.421Z,79.27
2019-02-14T08:28:59.122Z,81.44
2019-02-14T08:32:01.819Z,81.87
2019-02-14T08:35:06.500Z,81.28
2019-02-14T08:38:10.172Z,79.31
2019-02-14T08:41:13.077Z,77.06
2019-02-14T08:44:15.786Z,78.94
2019-02-14T08:47:18.524Z,78.44
2019-02-14T08:50:21.268Z,79.58
2019-02-14T08:53:23.990Z,75.13
2019-02-14T08:56:26.670Z,74.98
2019-02-14T08:59:29.312Z,73.56
2019-02-14T09:02:32.019Z,73.81
2019-02-14T09:05:34.701Z,74.26
2019-02-14T09:08:37.337Z,73.61
2019-02-14T09:11:40.016Z,73.99
2019-02-14T09:14:42.577Z,73.59
2019-02-14T09:17:45.467Z,71.35
2019-02-14T09:20:48.151Z,70.79
2019-02-14T09:23:50.797Z,72.00
2019-02-14T09:26:53.512Z,69.89
2019-02-14T09:29:56.162Z,69.41
2019-02-14T09:32:58.840Z,69.57
2019-02-14T09:36:01.641Z,70.41
2019-02-14T09:39:05.276Z,70.56
2019-02-14T09:42:07.961Z,70.95
2019-02-14T09:45:10.820Z,71.54
2019-02-14T09:48:13.466Z,71.16
2019-02-14T09:51:16.165Z,69.31
2019-02-14T09:54:18.838Z,71.52
2019-02-14T09:57:21.631Z,70.24
2019-02-14T10:00:24.496Z,72.22
2019-02-14T10:03:27.151Z,72.20
2019-02-14T10:06:36.297Z,71.72
2019-02-14T10:09:34.209Z,72.86
2019-02-14T10:12:36.792Z,73.75
2019-02-14T10:15:39.420Z,74.85
2019-02-14T10:18:41.963Z,75.68
2019-02-14T10:21:47.561Z,77.10
2019-02-14T10:24:52.464Z,77.35
2019-02-14T10:27:54.786Z,77.29
2019-02-14T10:30:57.463Z,77.08
2019-02-14T10:34:00.067Z,76.63
2019-02-14T10:37:02.768Z,75.75
2019-02-14T10:40:06.742Z,76.80
2019-02-14T10:43:09.353Z,77.23
2019-02-14T10:46:12.215Z,74.09
2019-02-14T10:49:16.311Z,74.16
2019-02-14T10:52:18.931Z,73.04
2019-02-14T10:55:21.626Z,72.95
2019-02-14T10:58:24.178Z,74.64
2019-02-14T11:01:26.873Z,74.19
2019-02-14T11:04:29.537Z,73.28
2019-02-14T11:07:32.103Z,73.15
2019-02-14T11:10:34.816Z,73.24
2019-02-14T11:13:37.471Z,72.37
2019-02-14T11:16:40.134Z,73.15
2019-02-14T11:19:42.675Z,73.23
2019-02-14T11:22:45.204Z,73.21
2019-02-14T11:25:48.091Z,73.34
2019-02-14T11:28:50.746Z,72.12
2019-02-14T11:31:53.349Z,71.73
2019-02-14T11:34:55.978Z,71.94
2019-02-14T11:37:58.591Z,73.18
2019-02-14T11:41:01.168Z,73.47
2019-02-14T11:44:03.977Z,73.01
2019-02-14T11:47:07.896Z,71.10
2019-02-14T11:50:11.769Z,69.53
2019-02-14T11:53:14.563Z,66.90
2019-02-14T11:56:17.303Z,67.66
2019-02-14T11:59:19.862Z,63.68
2019-02-14T12:02:22.509Z,63.37
2019-02-14T12:05:25.176Z,60.49
2019-02-14T12:08:27.766Z,60.02
2019-02-14T12:11:30.484Z,60.17
2019-02-14T12:14:33.139Z,60.79
2019-02-14T12:17:35.801Z,59.24
2019-02-14T12:20:38.618Z,56.87
2019-02-14T12:23:41.271Z,57.83
2019-02-14T12:26:43.868Z,57.70
2019-02-14T12:29:46.451Z,57.70
2019-02-14T12:32:49.246Z,57.43
2019-02-14T12:35:51.872Z,55.68
2019-02-14T12:38:56.226Z,55.92
2019-02-14T12:41:58.845Z,57.40
2019-02-14T12:45:01.466Z,56.92
2019-02-14T12:48:04.094Z,55.62
2019-02-14T12:51:06.647Z,57.44
2019-02-14T12:54:10.416Z,55.70
2019-02-14T12:57:13.090Z,55.15
2019-02-14T13:00:17.538Z,56.08
2019-02-14T13:03:20.158Z,56.53
2019-02-14T13:06:23.697Z,54.12
2019-02-14T13:09:26.226Z,55.82
2019-02-14T13:12:28.988Z,55.59
2019-02-14T13:15:31.678Z,56.04
2019-02-14T13:18:34.257Z,56.11
2019-02-14T13:21:36.974Z,58.68
2019-02-14T13:24:39.589Z,59.97
2019-02-14T13:27:42.287Z,58.98
2019-02-14T13:30:44.838Z,54.47
2019-02-14T13:33:47.508Z,57.89
2019-02-14T13:36:50.109Z,55.15
2019-02-14T13:39:52.726Z,54.63
2019-02-14T13:42:55.349Z,55.03
2019-02-14T13:45:58.036Z,53.59
2019-02-14T13:49:00.843Z,54.94
2019-02-14T13:52:03.496Z,57.91
2019-02-14T13:55:06.893Z,56.87
2019-02-14T13:58:09.528Z,58.37
2019-02-14T14:01:12.159Z,58.60
2019-02-14T14:04:14.730Z,61.35
2019-02-14T14:07:17.331Z,57.30
2019-02-14T14:10:19.900Z,58.72
2019-02-14T14:13:22.557Z,56.08
2019-02-14T14:16:25.093Z,57.17
2019-02-14T14:19:29.920Z,57.57
2019-02-14T14:22:32.162Z,59.25
2019-02-14T14:25:34.753Z,56.83
2019-02-14T14:28:37.439Z,54.74
2019-02-14T14:31:40.173Z,55.57
2019-02-14T14:34:44.369Z,51.13
2019-02-14T14:37:47.068Z,54.43
2019-02-14T14:40:49.659Z,50.71
2019-02-14T14:44:06.374Z,52.90
2019-02-14T14:47:11.777Z,49.48
2019-02-14T14:50:14.480Z,51.01
2019-02-14T14:53:17.190Z,50.29
2019-02-14T14:56:19.847Z,51.73
2019-02-14T14:59:22.564Z,53.60
2019-02-14T15:02:25.219Z,53.96
2019-02-14T15:05:27.994Z,53.24
2019-02-14T15:08:30.654Z,53.60
2019-02-14T15:11:33.408Z,52.41
2019-02-14T15:14:35.983Z,53.45
2019-02-14T15:17:38.583Z,52.81
2019-02-14T15:20:41.293Z,54.41
2019-02-14T15:23:43.962Z,55.80
2019-02-14T15:26:46.613Z,55.60
2019-02-14T15:29:49.218Z,54.59
2019-02-14T15:32:51.788Z,53.50
2019-02-14T15:35:54.343Z,55.92
2019-02-14T15:39:10.422Z,55.30
2019-02-14T15:42:13.225Z,53.70
2019-02-14T15:45:15.920Z,56.54
2019-02-14T15:48:18.511Z,56.95
2019-02-14T15:51:21.032Z,57.26
2019-02-14T15:54:23.634Z,56.25
2019-02-14T15:57:26.499Z,54.02
2019-02-14T16:00:30.749Z,55.94
2019-02-14T16:03:34.654Z,57.89
2019-02-14T16:06:37.244Z,57.64
2019-02-14T16:09:41.265Z,58.10
2019-02-14T16:12:45.876Z,59.49
2019-02-14T16:15:48.654Z,58.07
2019-02-14T16:18:51.213Z,59.56
2019-02-14T16:21:56.018Z,57.92
2019-02-14T16:24:58.639Z,58.84
2019-02-14T16:28:01.278Z,61.32
2019-02-14T16:31:03.852Z,61.39
2019-02-14T16:34:06.538Z,59.94
2019-02-14T16:37:09.249Z,61.06
2019-02-14T16:40:11.932Z,62.23
2019-02-14T16:43:14.584Z,63.06
2019-02-14T16:46:18.265Z,62.74
2019-02-14T16:49:20.847Z,62.81
2019-02-14T16:52:23.583Z,62.42
2019-02-14T16:55:26.283Z,62.36
2019-02-14T16:58:28.837Z,63.68
2019-02-14T17:01:31.383Z,63.58
2019-02-14T17:04:34.643Z,63.90
2019-02-14T17:07:37.197Z,63.79
2019-02-14T17:10:39.919Z,62.39
2019-02-14T17:13:42.586Z,63.11
2019-02-14T17:16:45.177Z,64.03
2019-02-14T17:19:47.838Z,63.81
2019-02-14T17:22:50.770Z,64.42
2019-02-14T17:25:53.384Z,64.55
2019-02-14T17:28:56.279Z,65.50
2019-02-14T17:31:59.035Z,65.09
2019-02-14T17:35:01.797Z,66.21
2019-02-14T17:38:05.845Z,66.13
2019-02-14T17:41:08.703Z,63.65
2019-02-14T17:44:11.366Z,64.52
2019-02-14T17:47:14.029Z,64.38
2019-02-14T17:50:16.633Z,65.83
2019-02-14T17:53:19.269Z,64.93
2019-02-14T17:56:21.902Z,64.10
2019-02-14T17:59:24.660Z,64.00
2019-02-14T18:02:28.665Z,62.45
2019-02-14T18:05:31.713Z,63.70
2019-02-14T18:08:34.389Z,62.23
2019-02-14T18:11:37.203Z,61.19
2019-02-14T18:14:39.845Z,61.53
2019-02-14T18:17:42.443Z,60.40
2019-02-14T18:20:45.063Z,62.58
2019-02-14T18:23:47.759Z,63.67
2019-02-14T18:26:50.543Z,62.91
2019-02-14T18:29:53.296Z,63.48
2019-02-14T18:32:55.944Z,61.41
2019-02-14T18:35:58.653Z,63.20
2019-02-14T18:39:01.240Z,64.41
2019-02-14T18:42:04.589Z,64.51
2019-02-14T18:45:09.874Z,64.49
2019-02-14T18:48:15.378Z,64.29
2019-02-14T18:51:18.130Z,65.09
2019-02-14T18:54:23.064Z,64.20
2019-02-14T18:57:26.019Z,63.50
2019-02-14T19:00:28.693Z,62.93
2019-02-14T19:03:31.468Z,63.31
2019-02-14T19:06:34.189Z,63.80
2019-02-14T19:09:36.900Z,64.06
2019-02-14T19:12:39.544Z,64.21
2019-02-14T19:15:42.335Z,64.92
2019-02-14T19:18:45.009Z,64.90
2019-02-14T19:21:48.392Z,63.77
2019-02-14T19:24:51.039Z,63.86
2019-02-14T19:27:53.620Z,64.80
2019-02-14T19:30:56.362Z,65.35
2019-02-14T19:34:01.164Z,65.20
2019-02-14T19:37:03.893Z,65.70
2019-02-14T19:40:06.798Z,63.45
2019-02-14T19:43:09.584Z,61.08
2019-02-14T19:46:12.236Z,63.56
2019-02-14T19:49:15.209Z,62.00
2019-02-14T19:52:17.844Z,64.06
2019-02-14T19:55:20.688Z,63.33
2019-02-14T19:58:23.358Z,66.15
2019-02-14T20:01:26.885Z,64.51
2019-02-14T20:04:29.651Z,66.07
2019-02-14T20:07:32.273Z,65.99
2019-02-14T20:10:34.944Z,67.96
2019-02-14T20:13:39.813Z,68.27
2019-02-14T20:16:42.574Z,67.20
2019-02-14T20:19:45.289Z,67.93
2019-02-14T20:22:48.074Z,68.60
2019-02-14T20:25:51.788Z,69.12
2019-02-14T20:28:54.395Z,70.16
2019-02-14T20:31:57.070Z,71.34
2019-02-14T20:35:01.800Z,70.15
2019-02-14T20:38:04.311Z,71.10
2019-02-14T20:41:06.938Z,69.70
2019-02-14T20:44:09.644Z,68.75
2019-02-14T20:47:12.312Z,67.47
2019-02-14T20:50:15.086Z,66.52
2019-02-14T20:53:17.840Z,66.42
2019-02-14T20:56:21.699Z,65.20
2019-02-14T20:59:24.463Z,64.09
2019-02-14T21:02:27.297Z,66.54
2019-02-14T21:05:30.289Z,68.44
2019-02-14T21:08:32.944Z,67.22
2019-02-14T21:11:35.728Z,67.25
2019-02-14T21:14:38.464Z,68.17
2019-02-14T21:17:41.192Z,68.73
2019-02-14T21:20:43.932Z,68.39
2019-02-14T21:23:46.642Z,68.50
2019-02-14T21:26:49.302Z,69.39
2019-02-14T21:29:52.037Z,70.36
2019-02-14T21:32:57.938Z,70.17
2019-02-14T21:36:00.469Z,70.64
2019-02-14T21:39:04.821Z,69.41
2019-02-14T21:42:19.705Z,68.96
2019-02-14T21:45:14.733Z,70.16
2019-02-14T21:48:17.282Z,71.57
2019-02-14T21:51:22.944Z,70.32
2019-02-14T21:54:25.524Z,68.53
2019-02-14T21:57:34.197Z,68.18
2019-02-14T22:00:36.968Z,69.76
2019-02-14T22:03:39.670Z,70.24
2019-02-14T22:06:43.507Z,69.29
2019-02-14T22:09:46.232Z,67.94
2019-02-14T22:12:49.006Z,70.50
2019-02-14T22:15:58.120Z,70.49
2019-02-14T22:19:02.480Z,70.68
2019-02-14T22:22:05.261Z,71.46
2019-02-14T22:25:08.088Z,71.56
2019-02-14T22:28:10.788Z,71.10
2019-02-14T22:31:13.495Z,71.44
2019-02-14T22:34:16.179Z,71.61
2019-02-14T22:37:18.840Z,72.36
2019-02-14T22:40:21.590Z,72.20
2019-02-14T22:43:24.405Z,73.02
2019-02-14T22:46:27.041Z,72.77
2019-02-14T22:49:29.749Z,72.26
2019-02-14T22:52:33.314Z,74.22
2019-02-14T22:55:35.951Z,74.17
2019-02-14T22:58:38.542Z,73.02
2019-02-14T23:01:43.820Z,71.04
2019-02-14T23:04:46.806Z,70.74
2019-02-14T23:07:49.393Z,69.70
2019-02-14T23:10:53.812Z,68.53
2019-02-14T23:13:56.458Z,69.41
2019-02-14T23:16:59.009Z,72.24
2019-02-14T23:20:01.686Z,73.51
2019-02-14T23:23:04.375Z,73.11
2019-02-14T23:26:06.950Z,73.39
2019-02-14T23:29:09.555Z,76.10
2019-02-14T23:32:12.187Z,75.81
2019-02-14T23:35:14.833Z,75.91
2019-02-14T23:38:17.378Z,76.75
2019-02-14T23:41:20.003Z,74.80
2019-02-14T23:44:22.790Z,75.61
2019-02-14T23:47:25.373Z,76.10
2019-02-14T23:50:27.959Z,74.86
2019-02-14T23:53:30.526Z,74.40
2019-02-14T23:56:33.178Z,75.36
2019-02-14T23:59:35.855Z,75.48
